sensor_id;sensor_type;location;lat;lon;timestamp;temperature;humidity
35027;DHT22;60696;51.426;6.934;2022-08-21T00:02:01;18.40;99.90
35027;DHT22;60696;51.426;6.934;2022-08-21T00:04:26;18.40;99.90
35027;DHT22;60696;51.426;6.934;2022-08-21T00:06:52;18.40;99.90
35027;DHT22;60696;51.426;6.934;2022-08-21T00:09:17;18.40;99.90
35027;DHT22;60696;51.426;6.934;2022-08-21T00:11:43;18.40;99.90
35027;DHT22;60696;51.426;6.934;2022-08-21T00:14:09;18.40;99.90
35027;DHT22;60696;51.426;6.934;2022-08-21T00:16:35;18.40;99.90
35027;DHT22;60696;51.426;6.934;2022-08-21T00:19:00;18.30;99.90
35027;DHT22;60696;51.426;6.934;2022-08-21T00:21:26;18.20;99.90
35027;DHT22;60696;51.426;6.934;2022-08-21T00:23:52;18.30;99.90
35027;DHT22;60696;51.426;6.934;2022-08-21T00:26:17;18.20;99.90
35027;DHT22;60696;51.426;6.934;2022-08-21T00:28:43;18.10;99.90
35027;DHT22;60696;51.426;6.934;2022-08-21T00:31:11;18.00;99.90
35027;DHT22;60696;51.426;6.934;2022-08-21T00:33:36;18.10;99.90
35027;DHT22;60696;51.426;6.934;2022-08-21T00:36:02;18.10;99.90
35027;DHT22;60696;51.426;6.934;2022-08-21T00:38:28;18.00;99.90
35027;DHT22;60696;51.426;6.934;2022-08-21T00:40:56;18.00;99.90
35027;DHT22;60696;51.426;6.934;2022-08-21T00:43:23;18.00;99.90
35027;DHT22;60696;51.426;6.934;2022-08-21T00:45:49;18.10;99.90
35027;DHT22;60696;51.426;6.934;2022-08-21T00:48:15;18.10;99.90
35027;DHT22;60696;51.426;6.934;2022-08-21T00:50:53;18.10;99.90
35027;DHT22;60696;51.426;6.934;2022-08-21T00:53:20;18.10;99.90
35027;DHT22;60696;51.426;6.934;2022-08-21T00:55:46;18.10;99.90
35027;DHT22;60696;51.426;6.934;2022-08-21T00:58:12;18.00;99.90
35027;DHT22;60696;51.426;6.934;2022-08-21T01:00:39;18.00;99.90
35027;DHT22;60696;51.426;6.934;2022-08-21T01:03:06;17.90;99.90
35027;DHT22;60696;51.426;6.934;2022-08-21T01:05:32;17.90;99.90
35027;DHT22;60696;51.426;6.934;2022-08-21T01:07:58;17.80;99.90
35027;DHT22;60696;51.426;6.934;2022-08-21T01:10:24;17.70;99.90
35027;DHT22;60696;51.426;6.934;2022-08-21T01:12:50;17.60;99.90
35027;DHT22;60696;51.426;6.934;2022-08-21T01:15:16;17.60;99.90
35027;DHT22;60696;51.426;6.934;2022-08-21T01:17:42;17.60;99.90
35027;DHT22;60696;51.426;6.934;2022-08-21T01:20:08;17.60;99.90
35027;DHT22;60696;51.426;6.934;2022-08-21T01:22:34;17.50;99.90
35027;DHT22;60696;51.426;6.934;2022-08-21T01:25:01;17.50;99.90
35027;DHT22;60696;51.426;6.934;2022-08-21T01:27:26;17.40;99.90
35027;DHT22;60696;51.426;6.934;2022-08-21T01:29:56;17.40;99.90
35027;DHT22;60696;51.426;6.934;2022-08-21T01:32:22;17.40;99.90
35027;DHT22;60696;51.426;6.934;2022-08-21T01:34:49;17.40;99.90
35027;DHT22;60696;51.426;6.934;2022-08-21T01:37:14;17.40;99.90
35027;DHT22;60696;51.426;6.934;2022-08-21T01:39:41;17.40;99.90
35027;DHT22;60696;51.426;6.934;2022-08-21T01:42:07;17.30;99.90
35027;DHT22;60696;51.426;6.934;2022-08-21T01:44:32;17.20;99.90
35027;DHT22;60696;51.426;6.934;2022-08-21T01:46:59;17.20;99.90
35027;DHT22;60696;51.426;6.934;2022-08-21T01:49:25;17.10;99.90
35027;DHT22;60696;51.426;6.934;2022-08-21T01:51:51;17.10;99.90
35027;DHT22;60696;51.426;6.934;2022-08-21T01:54:17;17.00;99.90
35027;DHT22;60696;51.426;6.934;2022-08-21T01:56:43;17.10;99.90
35027;DHT22;60696;51.426;6.934;2022-08-21T01:59:10;17.10;99.90
35027;DHT22;60696;51.426;6.934;2022-08-21T02:01:35;17.00;99.90
35027;DHT22;60696;51.426;6.934;2022-08-21T02:04:01;17.10;99.90
35027;DHT22;60696;51.426;6.934;2022-08-21T02:06:27;17.00;99.90
35027;DHT22;60696;51.426;6.934;2022-08-21T02:08:53;17.00;99.90
35027;DHT22;60696;51.426;6.934;2022-08-21T02:11:18;17.00;99.90
35027;DHT22;60696;51.426;6.934;2022-08-21T02:13:44;17.00;99.90
35027;DHT22;60696;51.426;6.934;2022-08-21T02:16:10;17.00;99.90
35027;DHT22;60696;51.426;6.934;2022-08-21T02:18:35;17.00;99.90
35027;DHT22;60696;51.426;6.934;2022-08-21T02:21:01;17.00;99.90
35027;DHT22;60696;51.426;6.934;2022-08-21T02:23:27;16.90;99.90
35027;DHT22;60696;51.426;6.934;2022-08-21T02:26:03;17.00;99.90
35027;DHT22;60696;51.426;6.934;2022-08-21T02:28:29;17.00;99.90
35027;DHT22;60696;51.426;6.934;2022-08-21T02:30:55;16.90;99.90
35027;DHT22;60696;51.426;6.934;2022-08-21T02:33:21;17.00;99.90
35027;DHT22;60696;51.426;6.934;2022-08-21T02:35:47;17.00;99.90
35027;DHT22;60696;51.426;6.934;2022-08-21T02:38:14;17.00;99.90
35027;DHT22;60696;51.426;6.934;2022-08-21T02:40:41;17.00;99.90
35027;DHT22;60696;51.426;6.934;2022-08-21T02:43:07;17.00;99.90
35027;DHT22;60696;51.426;6.934;2022-08-21T02:45:34;17.00;99.90
35027;DHT22;60696;51.426;6.934;2022-08-21T02:48:04;17.10;99.90
35027;DHT22;60696;51.426;6.934;2022-08-21T02:50:31;17.10;99.90
35027;DHT22;60696;51.426;6.934;2022-08-21T02:52:58;17.00;99.90
35027;DHT22;60696;51.426;6.934;2022-08-21T02:55:24;17.00;99.90
35027;DHT22;60696;51.426;6.934;2022-08-21T02:57:52;17.00;99.90
35027;DHT22;60696;51.426;6.934;2022-08-21T03:00:18;17.00;99.90
35027;DHT22;60696;51.426;6.934;2022-08-21T03:02:44;17.00;99.90
35027;DHT22;60696;51.426;6.934;2022-08-21T03:05:12;16.90;99.90
35027;DHT22;60696;51.426;6.934;2022-08-21T03:07:38;16.90;99.90
35027;DHT22;60696;51.426;6.934;2022-08-21T03:10:05;16.90;99.90
35027;DHT22;60696;51.426;6.934;2022-08-21T03:12:31;16.70;99.90
35027;DHT22;60696;51.426;6.934;2022-08-21T03:14:56;16.70;99.90
35027;DHT22;60696;51.426;6.934;2022-08-21T03:17:23;16.70;99.90
35027;DHT22;60696;51.426;6.934;2022-08-21T03:19:49;16.60;99.90
35027;DHT22;60696;51.426;6.934;2022-08-21T03:22:15;16.50;99.90
35027;DHT22;60696;51.426;6.934;2022-08-21T03:24:40;16.50;99.90
35027;DHT22;60696;51.426;6.934;2022-08-21T03:27:06;16.40;99.90
35027;DHT22;60696;51.426;6.934;2022-08-21T03:29:31;16.40;99.90
35027;DHT22;60696;51.426;6.934;2022-08-21T03:31:57;16.30;99.90
35027;DHT22;60696;51.426;6.934;2022-08-21T03:34:22;16.30;99.90
35027;DHT22;60696;51.426;6.934;2022-08-21T03:36:48;16.20;99.90
35027;DHT22;60696;51.426;6.934;2022-08-21T03:39:14;16.10;99.90
35027;DHT22;60696;51.426;6.934;2022-08-21T03:41:40;16.10;99.90
35027;DHT22;60696;51.426;6.934;2022-08-21T03:44:05;15.90;99.90
35027;DHT22;60696;51.426;6.934;2022-08-21T03:46:31;15.80;99.90
35027;DHT22;60696;51.426;6.934;2022-08-21T03:48:56;15.80;99.90
35027;DHT22;60696;51.426;6.934;2022-08-21T03:51:22;15.90;99.90
35027;DHT22;60696;51.426;6.934;2022-08-21T03:53:48;15.90;99.90
35027;DHT22;60696;51.426;6.934;2022-08-21T03:56:13;15.90;99.90
35027;DHT22;60696;51.426;6.934;2022-08-21T03:58:39;15.80;99.90
35027;DHT22;60696;51.426;6.934;2022-08-21T04:01:04;15.80;99.90
35027;DHT22;60696;51.426;6.934;2022-08-21T04:03:31;15.80;99.90
35027;DHT22;60696;51.426;6.934;2022-08-21T04:05:57;15.70;99.90
35027;DHT22;60696;51.426;6.934;2022-08-21T04:08:23;15.70;99.90
35027;DHT22;60696;51.426;6.934;2022-08-21T04:10:49;15.70;99.90
35027;DHT22;60696;51.426;6.934;2022-08-21T04:13:15;15.70;99.90
35027;DHT22;60696;51.426;6.934;2022-08-21T04:15:41;15.70;99.90
35027;DHT22;60696;51.426;6.934;2022-08-21T04:18:06;15.70;99.90
35027;DHT22;60696;51.426;6.934;2022-08-21T04:20:34;15.70;99.90
35027;DHT22;60696;51.426;6.934;2022-08-21T04:22:59;15.70;99.90
35027;DHT22;60696;51.426;6.934;2022-08-21T04:25:25;15.70;99.90
35027;DHT22;60696;51.426;6.934;2022-08-21T04:27:51;15.70;99.90
35027;DHT22;60696;51.426;6.934;2022-08-21T04:30:16;15.60;99.90
35027;DHT22;60696;51.426;6.934;2022-08-21T04:32:43;15.60;99.90
35027;DHT22;60696;51.426;6.934;2022-08-21T04:35:09;15.60;99.90
35027;DHT22;60696;51.426;6.934;2022-08-21T04:37:35;15.60;99.90
35027;DHT22;60696;51.426;6.934;2022-08-21T04:40:02;15.60;99.90
35027;DHT22;60696;51.426;6.934;2022-08-21T04:42:28;15.60;99.90
35027;DHT22;60696;51.426;6.934;2022-08-21T04:44:53;15.60;99.90
35027;DHT22;60696;51.426;6.934;2022-08-21T04:47:19;15.50;99.90
35027;DHT22;60696;51.426;6.934;2022-08-21T04:49:45;15.50;99.90
35027;DHT22;60696;51.426;6.934;2022-08-21T04:52:11;15.50;99.90
35027;DHT22;60696;51.426;6.934;2022-08-21T04:54:37;15.50;99.90
35027;DHT22;60696;51.426;6.934;2022-08-21T04:57:04;15.50;99.90
35027;DHT22;60696;51.426;6.934;2022-08-21T04:59:31;15.60;99.90
35027;DHT22;60696;51.426;6.934;2022-08-21T05:01:58;15.60;99.90
35027;DHT22;60696;51.426;6.934;2022-08-21T05:04:26;15.60;99.90
35027;DHT22;60696;51.426;6.934;2022-08-21T05:06:54;15.70;99.90
35027;DHT22;60696;51.426;6.934;2022-08-21T05:09:20;15.70;99.90
35027;DHT22;60696;51.426;6.934;2022-08-21T05:11:46;15.70;99.90
35027;DHT22;60696;51.426;6.934;2022-08-21T05:14:12;15.60;99.90
35027;DHT22;60696;51.426;6.934;2022-08-21T05:16:37;15.50;99.90
35027;DHT22;60696;51.426;6.934;2022-08-21T05:19:03;15.60;99.90
35027;DHT22;60696;51.426;6.934;2022-08-21T05:21:29;15.60;99.90
35027;DHT22;60696;51.426;6.934;2022-08-21T05:23:54;15.60;99.90
35027;DHT22;60696;51.426;6.934;2022-08-21T05:26:20;15.60;99.90
35027;DHT22;60696;51.426;6.934;2022-08-21T05:28:45;15.60;99.90
35027;DHT22;60696;51.426;6.934;2022-08-21T05:31:11;15.70;99.90
35027;DHT22;60696;51.426;6.934;2022-08-21T05:33:36;15.70;99.90
35027;DHT22;60696;51.426;6.934;2022-08-21T05:36:02;15.80;99.90
35027;DHT22;60696;51.426;6.934;2022-08-21T05:38:28;15.90;99.90
35027;DHT22;60696;51.426;6.934;2022-08-21T05:40:53;16.00;99.90
35027;DHT22;60696;51.426;6.934;2022-08-21T05:43:19;16.10;99.90
35027;DHT22;60696;51.426;6.934;2022-08-21T05:45:45;16.20;99.90
35027;DHT22;60696;51.426;6.934;2022-08-21T05:48:15;16.30;99.90
35027;DHT22;60696;51.426;6.934;2022-08-21T05:50:41;16.40;99.90
35027;DHT22;60696;51.426;6.934;2022-08-21T05:53:07;16.60;99.90
35027;DHT22;60696;51.426;6.934;2022-08-21T05:55:32;16.70;99.90
35027;DHT22;60696;51.426;6.934;2022-08-21T05:57:58;17.20;99.90
35027;DHT22;60696;51.426;6.934;2022-08-21T06:00:24;17.80;99.90
35027;DHT22;60696;51.426;6.934;2022-08-21T06:02:50;18.60;99.90
35027;DHT22;60696;51.426;6.934;2022-08-21T06:05:16;19.10;99.90
35027;DHT22;60696;51.426;6.934;2022-08-21T06:07:42;19.80;99.90
35027;DHT22;60696;51.426;6.934;2022-08-21T06:10:07;20.30;99.90
35027;DHT22;60696;51.426;6.934;2022-08-21T06:12:33;20.70;99.90
35027;DHT22;60696;51.426;6.934;2022-08-21T06:14:58;21.60;99.90
35027;DHT22;60696;51.426;6.934;2022-08-21T06:17:24;22.30;99.90
35027;DHT22;60696;51.426;6.934;2022-08-21T06:19:53;22.50;99.90
35027;DHT22;60696;51.426;6.934;2022-08-21T06:22:19;23.40;99.90
35027;DHT22;60696;51.426;6.934;2022-08-21T06:24:45;24.20;99.90
35027;DHT22;60696;51.426;6.934;2022-08-21T06:27:10;24.80;99.90
35027;DHT22;60696;51.426;6.934;2022-08-21T06:29:36;25.50;99.90
35027;DHT22;60696;51.426;6.934;2022-08-21T06:32:02;25.70;99.80
35027;DHT22;60696;51.426;6.934;2022-08-21T06:34:27;25.60;99.50
35027;DHT22;60696;51.426;6.934;2022-08-21T06:36:53;25.60;99.40
35027;DHT22;60696;51.426;6.934;2022-08-21T06:39:18;26.20;98.60
35027;DHT22;60696;51.426;6.934;2022-08-21T06:41:44;26.30;96.60
35027;DHT22;60696;51.426;6.934;2022-08-21T06:44:10;26.80;95.90
35027;DHT22;60696;51.426;6.934;2022-08-21T06:46:35;26.90;95.60
35027;DHT22;60696;51.426;6.934;2022-08-21T06:49:03;26.90;94.90
35027;DHT22;60696;51.426;6.934;2022-08-21T06:51:28;27.20;94.00
35027;DHT22;60696;51.426;6.934;2022-08-21T06:53:54;27.10;93.60
35027;DHT22;60696;51.426;6.934;2022-08-21T06:56:20;27.00;93.80
35027;DHT22;60696;51.426;6.934;2022-08-21T06:58:45;27.80;93.30
35027;DHT22;60696;51.426;6.934;2022-08-21T07:01:11;28.60;91.20
35027;DHT22;60696;51.426;6.934;2022-08-21T07:03:37;28.70;90.20
35027;DHT22;60696;51.426;6.934;2022-08-21T07:06:05;28.20;89.40
35027;DHT22;60696;51.426;6.934;2022-08-21T07:08:31;28.50;89.80
35027;DHT22;60696;51.426;6.934;2022-08-21T07:10:58;28.70;88.00
35027;DHT22;60696;51.426;6.934;2022-08-21T07:13:24;29.00;86.20
35027;DHT22;60696;51.426;6.934;2022-08-21T07:15:49;29.20;85.90
35027;DHT22;60696;51.426;6.934;2022-08-21T07:18:15;29.50;83.80
35027;DHT22;60696;51.426;6.934;2022-08-21T07:20:41;29.80;82.50
35027;DHT22;60696;51.426;6.934;2022-08-21T07:23:08;30.20;79.90
35027;DHT22;60696;51.426;6.934;2022-08-21T07:25:34;30.40;79.00
35027;DHT22;60696;51.426;6.934;2022-08-21T07:27:59;30.70;78.10
35027;DHT22;60696;51.426;6.934;2022-08-21T07:30:25;31.00;77.40
35027;DHT22;60696;51.426;6.934;2022-08-21T07:32:51;30.30;76.80
35027;DHT22;60696;51.426;6.934;2022-08-21T07:35:17;30.50;77.50
35027;DHT22;60696;51.426;6.934;2022-08-21T07:37:43;30.50;76.60
35027;DHT22;60696;51.426;6.934;2022-08-21T07:40:08;29.80;76.90
35027;DHT22;60696;51.426;6.934;2022-08-21T07:42:34;30.20;78.30
35027;DHT22;60696;51.426;6.934;2022-08-21T07:44:59;31.20;74.20
35027;DHT22;60696;51.426;6.934;2022-08-21T07:47:25;32.00;71.20
35027;DHT22;60696;51.426;6.934;2022-08-21T07:49:50;32.10;70.80
35027;DHT22;60696;51.426;6.934;2022-08-21T07:52:16;31.40;69.50
35027;DHT22;60696;51.426;6.934;2022-08-21T07:54:42;31.00;69.90
35027;DHT22;60696;51.426;6.934;2022-08-21T07:57:07;30.80;72.10
35027;DHT22;60696;51.426;6.934;2022-08-21T07:59:33;30.60;70.60
35027;DHT22;60696;51.426;6.934;2022-08-21T08:01:58;29.80;72.30
35027;DHT22;60696;51.426;6.934;2022-08-21T08:04:24;29.50;69.80
35027;DHT22;60696;51.426;6.934;2022-08-21T08:06:50;30.20;71.20
35027;DHT22;60696;51.426;6.934;2022-08-21T08:09:15;30.70;71.40
35027;DHT22;60696;51.426;6.934;2022-08-21T08:11:42;31.20;67.90
35027;DHT22;60696;51.426;6.934;2022-08-21T08:14:09;31.10;67.30
35027;DHT22;60696;51.426;6.934;2022-08-21T08:16:34;31.20;68.70
35027;DHT22;60696;51.426;6.934;2022-08-21T08:19:00;32.10;64.30
35027;DHT22;60696;51.426;6.934;2022-08-21T08:21:25;32.90;64.20
35027;DHT22;60696;51.426;6.934;2022-08-21T08:23:51;33.60;62.30
35027;DHT22;60696;51.426;6.934;2022-08-21T08:26:17;33.50;61.00
35027;DHT22;60696;51.426;6.934;2022-08-21T08:28:42;33.30;61.40
35027;DHT22;60696;51.426;6.934;2022-08-21T08:31:08;33.60;60.40
35027;DHT22;60696;51.426;6.934;2022-08-21T08:33:33;33.80;59.50
35027;DHT22;60696;51.426;6.934;2022-08-21T08:35:59;33.20;59.90
35027;DHT22;60696;51.426;6.934;2022-08-21T08:38:25;33.70;60.40
35027;DHT22;60696;51.426;6.934;2022-08-21T08:41:10;33.90;58.80
35027;DHT22;60696;51.426;6.934;2022-08-21T08:43:37;34.30;58.20
35027;DHT22;60696;51.426;6.934;2022-08-21T08:46:04;35.00;57.00
35027;DHT22;60696;51.426;6.934;2022-08-21T08:48:34;35.20;56.20
35027;DHT22;60696;51.426;6.934;2022-08-21T08:51:01;35.50;54.90
35027;DHT22;60696;51.426;6.934;2022-08-21T08:53:42;35.40;54.20
35027;DHT22;60696;51.426;6.934;2022-08-21T08:56:09;35.30;54.80
35027;DHT22;60696;51.426;6.934;2022-08-21T08:58:39;35.60;54.90
35027;DHT22;60696;51.426;6.934;2022-08-21T09:01:08;36.60;53.30
35027;DHT22;60696;51.426;6.934;2022-08-21T09:03:36;36.40;52.40
35027;DHT22;60696;51.426;6.934;2022-08-21T09:08:51;37.40;50.80
35027;DHT22;60696;51.426;6.934;2022-08-21T09:11:26;36.70;50.20
35027;DHT22;60696;51.426;6.934;2022-08-21T09:13:55;35.80;51.70
35027;DHT22;60696;51.426;6.934;2022-08-21T09:16:30;34.20;52.90
35027;DHT22;60696;51.426;6.934;2022-08-21T09:21:58;33.40;54.00
35027;DHT22;60696;51.426;6.934;2022-08-21T09:27:12;32.70;55.60
35027;DHT22;60696;51.426;6.934;2022-08-21T09:29:40;32.70;54.90
35027;DHT22;60696;51.426;6.934;2022-08-21T09:34:54;32.90;54.30
35027;DHT22;60696;51.426;6.934;2022-08-21T09:37:19;33.90;53.40
35027;DHT22;60696;51.426;6.934;2022-08-21T09:39:45;34.70;53.10
35027;DHT22;60696;51.426;6.934;2022-08-21T09:42:10;35.30;51.60
35027;DHT22;60696;51.426;6.934;2022-08-21T09:44:37;35.70;50.60
35027;DHT22;60696;51.426;6.934;2022-08-21T09:47:05;35.50;51.50
35027;DHT22;60696;51.426;6.934;2022-08-21T09:49:37;35.60;52.00
35027;DHT22;60696;51.426;6.934;2022-08-21T09:52:05;35.60;51.40
35027;DHT22;60696;51.426;6.934;2022-08-21T09:54:37;34.90;52.10
35027;DHT22;60696;51.426;6.934;2022-08-21T09:59:54;34.30;51.90
35027;DHT22;60696;51.426;6.934;2022-08-21T10:04:49;32.80;55.30
35027;DHT22;60696;51.426;6.934;2022-08-21T10:07:19;32.50;54.10
35027;DHT22;60696;51.426;6.934;2022-08-21T10:09:44;32.20;55.40
35027;DHT22;60696;51.426;6.934;2022-08-21T10:12:19;31.80;56.30
35027;DHT22;60696;51.426;6.934;2022-08-21T10:14:51;31.20;58.00
35027;DHT22;60696;51.426;6.934;2022-08-21T10:17:28;30.50;57.50
35027;DHT22;60696;51.426;6.934;2022-08-21T10:20:05;29.90;58.20
35027;DHT22;60696;51.426;6.934;2022-08-21T10:29:57;29.10;62.00
35027;DHT22;60696;51.426;6.934;2022-08-21T10:32:27;29.10;61.00
35027;DHT22;60696;51.426;6.934;2022-08-21T10:42:50;28.80;61.00
35027;DHT22;60696;51.426;6.934;2022-08-21T10:48:05;28.90;62.30
35027;DHT22;60696;51.426;6.934;2022-08-21T10:50:44;28.90;61.90
35027;DHT22;60696;51.426;6.934;2022-08-21T10:54:16;28.60;62.70
35027;DHT22;60696;51.426;6.934;2022-08-21T10:58:36;28.40;63.70
35027;DHT22;60696;51.426;6.934;2022-08-21T11:04:15;28.50;62.40
35027;DHT22;60696;51.426;6.934;2022-08-21T11:06:43;28.20;63.80
35027;DHT22;60696;51.426;6.934;2022-08-21T11:09:12;28.80;64.30
35027;DHT22;60696;51.426;6.934;2022-08-21T11:11:44;28.90;63.30
35027;DHT22;60696;51.426;6.934;2022-08-21T11:16:48;28.40;63.10
35027;DHT22;60696;51.426;6.934;2022-08-21T11:21:48;28.00;64.10
35027;DHT22;60696;51.426;6.934;2022-08-21T11:29:31;27.40;65.10
35027;DHT22;60696;51.426;6.934;2022-08-21T11:37:06;27.50;66.10
35027;DHT22;60696;51.426;6.934;2022-08-21T11:39:52;27.80;65.50
35027;DHT22;60696;51.426;6.934;2022-08-21T11:42:32;27.70;64.50
35027;DHT22;60696;51.426;6.934;2022-08-21T11:48:01;27.90;63.80
35027;DHT22;60696;51.426;6.934;2022-08-21T11:50:31;28.20;63.60
35027;DHT22;60696;51.426;6.934;2022-08-21T11:53:11;28.50;63.70
35027;DHT22;60696;51.426;6.934;2022-08-21T11:55:43;28.80;63.80
35027;DHT22;60696;51.426;6.934;2022-08-21T11:58:17;28.90;64.00
35027;DHT22;60696;51.426;6.934;2022-08-21T12:00:55;29.00;62.60
35027;DHT22;60696;51.426;6.934;2022-08-21T12:03:23;29.00;63.10
35027;DHT22;60696;51.426;6.934;2022-08-21T12:06:08;28.90;63.30
35027;DHT22;60696;51.426;6.934;2022-08-21T12:08:36;28.60;62.90
35027;DHT22;60696;51.426;6.934;2022-08-21T12:13:32;28.20;62.90
35027;DHT22;60696;51.426;6.934;2022-08-21T12:16:09;27.30;61.70
35027;DHT22;60696;51.426;6.934;2022-08-21T12:18:35;27.60;65.90
35027;DHT22;60696;51.426;6.934;2022-08-21T12:26:31;28.10;62.60
35027;DHT22;60696;51.426;6.934;2022-08-21T12:29:04;28.00;65.90
35027;DHT22;60696;51.426;6.934;2022-08-21T12:31:30;27.60;64.90
35027;DHT22;60696;51.426;6.934;2022-08-21T12:33:57;27.70;65.10
35027;DHT22;60696;51.426;6.934;2022-08-21T12:36:24;27.20;64.40
35027;DHT22;60696;51.426;6.934;2022-08-21T12:38:52;27.60;66.70
35027;DHT22;60696;51.426;6.934;2022-08-21T12:41:20;27.90;66.40
35027;DHT22;60696;51.426;6.934;2022-08-21T12:43:52;28.10;65.30
35027;DHT22;60696;51.426;6.934;2022-08-21T12:46:22;28.10;66.80
35027;DHT22;60696;51.426;6.934;2022-08-21T12:48:54;28.10;65.00
35027;DHT22;60696;51.426;6.934;2022-08-21T12:51:22;27.80;66.30
35027;DHT22;60696;51.426;6.934;2022-08-21T12:56:16;27.80;66.60
35027;DHT22;60696;51.426;6.934;2022-08-21T12:58:45;27.90;67.20
35027;DHT22;60696;51.426;6.934;2022-08-21T13:01:22;28.10;64.00
35027;DHT22;60696;51.426;6.934;2022-08-21T13:03:50;28.20;65.90
35027;DHT22;60696;51.426;6.934;2022-08-21T13:06:17;28.00;64.10
35027;DHT22;60696;51.426;6.934;2022-08-21T13:08:43;27.90;66.50
35027;DHT22;60696;51.426;6.934;2022-08-21T13:11:09;27.80;65.40
35027;DHT22;60696;51.426;6.934;2022-08-21T13:13:35;27.20;67.10
35027;DHT22;60696;51.426;6.934;2022-08-21T13:16:03;27.10;66.90
35027;DHT22;60696;51.426;6.934;2022-08-21T13:18:31;27.20;67.70
35027;DHT22;60696;51.426;6.934;2022-08-21T13:21:07;27.40;65.70
35027;DHT22;60696;51.426;6.934;2022-08-21T13:23:35;27.40;65.90
35027;DHT22;60696;51.426;6.934;2022-08-21T13:26:00;27.50;64.60
35027;DHT22;60696;51.426;6.934;2022-08-21T13:28:34;27.50;66.90
35027;DHT22;60696;51.426;6.934;2022-08-21T13:31:05;27.40;65.40
35027;DHT22;60696;51.426;6.934;2022-08-21T13:33:31;27.10;66.70
35027;DHT22;60696;51.426;6.934;2022-08-21T13:36:01;27.30;67.90
35027;DHT22;60696;51.426;6.934;2022-08-21T13:38:32;27.60;67.90
35027;DHT22;60696;51.426;6.934;2022-08-21T13:41:03;28.10;67.00
35027;DHT22;60696;51.426;6.934;2022-08-21T13:43:33;28.10;64.70
35027;DHT22;60696;51.426;6.934;2022-08-21T13:45:59;27.90;63.80
35027;DHT22;60696;51.426;6.934;2022-08-21T13:48:26;27.70;64.70
35027;DHT22;60696;51.426;6.934;2022-08-21T13:50:53;27.80;64.40
35027;DHT22;60696;51.426;6.934;2022-08-21T13:53:29;27.80;64.70
35027;DHT22;60696;51.426;6.934;2022-08-21T13:55:55;27.70;62.70
35027;DHT22;60696;51.426;6.934;2022-08-21T13:58:28;27.70;62.30
35027;DHT22;60696;51.426;6.934;2022-08-21T14:00:54;27.70;64.10
35027;DHT22;60696;51.426;6.934;2022-08-21T14:05:52;27.90;62.70
35027;DHT22;60696;51.426;6.934;2022-08-21T14:08:26;27.70;62.80
35027;DHT22;60696;51.426;6.934;2022-08-21T14:10:52;27.60;63.00
35027;DHT22;60696;51.426;6.934;2022-08-21T14:15:54;27.30;63.70
35027;DHT22;60696;51.426;6.934;2022-08-21T14:18:20;27.20;64.10
35027;DHT22;60696;51.426;6.934;2022-08-21T14:20:45;27.10;63.30
35027;DHT22;60696;51.426;6.934;2022-08-21T14:23:11;27.10;62.50
35027;DHT22;60696;51.426;6.934;2022-08-21T14:30:40;26.60;63.80
35027;DHT22;60696;51.426;6.934;2022-08-21T14:33:10;26.60;64.80
35027;DHT22;60696;51.426;6.934;2022-08-21T14:35:36;26.70;64.40
35027;DHT22;60696;51.426;6.934;2022-08-21T14:38:02;26.90;64.80
35027;DHT22;60696;51.426;6.934;2022-08-21T14:40:27;27.00;64.10
35027;DHT22;60696;51.426;6.934;2022-08-21T14:42:53;27.10;63.60
35027;DHT22;60696;51.426;6.934;2022-08-21T14:47:45;27.20;63.50
35027;DHT22;60696;51.426;6.934;2022-08-21T14:50:11;27.40;63.60
35027;DHT22;60696;51.426;6.934;2022-08-21T14:52:37;27.50;62.00
35027;DHT22;60696;51.426;6.934;2022-08-21T14:55:06;27.30;64.20
35027;DHT22;60696;51.426;6.934;2022-08-21T14:57:32;27.30;63.20
35027;DHT22;60696;51.426;6.934;2022-08-21T15:00:06;27.50;63.50
35027;DHT22;60696;51.426;6.934;2022-08-21T15:02:35;27.50;62.60
35027;DHT22;60696;51.426;6.934;2022-08-21T15:05:04;27.30;59.40
35027;DHT22;60696;51.426;6.934;2022-08-21T15:07:30;26.90;60.50
35027;DHT22;60696;51.426;6.934;2022-08-21T15:09:56;26.70;61.90
35027;DHT22;60696;51.426;6.934;2022-08-21T15:12:27;26.50;63.70
35027;DHT22;60696;51.426;6.934;2022-08-21T15:14:52;26.70;64.60
35027;DHT22;60696;51.426;6.934;2022-08-21T15:17:18;26.60;65.30
35027;DHT22;60696;51.426;6.934;2022-08-21T15:19:44;26.60;64.40
35027;DHT22;60696;51.426;6.934;2022-08-21T15:22:17;26.70;64.90
35027;DHT22;60696;51.426;6.934;2022-08-21T15:24:43;26.70;65.30
35027;DHT22;60696;51.426;6.934;2022-08-21T15:27:29;26.50;64.20
35027;DHT22;60696;51.426;6.934;2022-08-21T15:29:58;26.60;66.60
35027;DHT22;60696;51.426;6.934;2022-08-21T15:32:27;26.60;66.30
35027;DHT22;60696;51.426;6.934;2022-08-21T15:34:57;26.60;67.10
35027;DHT22;60696;51.426;6.934;2022-08-21T15:37:23;26.60;66.60
35027;DHT22;60696;51.426;6.934;2022-08-21T15:39:52;26.50;65.80
35027;DHT22;60696;51.426;6.934;2022-08-21T15:42:21;26.30;66.80
35027;DHT22;60696;51.426;6.934;2022-08-21T15:44:47;26.30;66.60
35027;DHT22;60696;51.426;6.934;2022-08-21T15:47:21;26.40;68.50
35027;DHT22;60696;51.426;6.934;2022-08-21T15:49:47;26.40;67.30
35027;DHT22;60696;51.426;6.934;2022-08-21T15:52:14;26.40;67.20
35027;DHT22;60696;51.426;6.934;2022-08-21T15:54:39;26.40;66.60
35027;DHT22;60696;51.426;6.934;2022-08-21T15:57:05;26.10;67.60
35027;DHT22;60696;51.426;6.934;2022-08-21T15:59:32;26.00;67.30
35027;DHT22;60696;51.426;6.934;2022-08-21T16:02:03;26.00;67.60
35027;DHT22;60696;51.426;6.934;2022-08-21T16:04:28;25.70;68.40
35027;DHT22;60696;51.426;6.934;2022-08-21T16:06:54;25.60;67.80
35027;DHT22;60696;51.426;6.934;2022-08-21T16:09:20;25.60;68.10
35027;DHT22;60696;51.426;6.934;2022-08-21T16:11:46;25.70;68.50
35027;DHT22;60696;51.426;6.934;2022-08-21T16:14:12;25.70;67.70
35027;DHT22;60696;51.426;6.934;2022-08-21T16:16:39;25.70;68.80
35027;DHT22;60696;51.426;6.934;2022-08-21T16:19:04;25.70;67.30
35027;DHT22;60696;51.426;6.934;2022-08-21T16:21:33;25.60;68.80
35027;DHT22;60696;51.426;6.934;2022-08-21T16:23:59;25.60;67.90
35027;DHT22;60696;51.426;6.934;2022-08-21T16:26:25;25.50;67.70
35027;DHT22;60696;51.426;6.934;2022-08-21T16:28:52;25.40;69.40
35027;DHT22;60696;51.426;6.934;2022-08-21T16:31:19;25.20;69.00
35027;DHT22;60696;51.426;6.934;2022-08-21T16:33:45;25.10;69.60
35027;DHT22;60696;51.426;6.934;2022-08-21T16:36:12;25.00;70.40
35027;DHT22;60696;51.426;6.934;2022-08-21T16:38:38;25.00;69.30
35027;DHT22;60696;51.426;6.934;2022-08-21T16:41:06;25.00;70.40
35027;DHT22;60696;51.426;6.934;2022-08-21T16:43:32;25.00;70.70
35027;DHT22;60696;51.426;6.934;2022-08-21T16:45:58;25.00;68.90
35027;DHT22;60696;51.426;6.934;2022-08-21T16:48:25;25.00;70.20
35027;DHT22;60696;51.426;6.934;2022-08-21T16:50:51;25.00;69.60
35027;DHT22;60696;51.426;6.934;2022-08-21T16:53:16;25.00;70.10